createdAt,value
2019-03-09T00:01:34.185Z,17.27
2019-03-09T00:03:41.135Z,16.42
2019-03-09T00:05:47.826Z,14.00
2019-03-09T00:07:54.481Z,15.53
2019-03-09T00:10:01.132Z,13.80
2019-03-09T00:12:09.412Z,14.50
2019-03-09T00:14:16.138Z,12.73
2019-03-09T00:16:22.795Z,11.90
2019-03-09T00:18:30.558Z,12.82
2019-03-09T00:20:37.213Z,13.95
2019-03-09T00:22:45.511Z,14.87
2019-03-09T00:24:53.845Z,14.20
2019-03-09T00:27:05.092Z,11.12
2019-03-09T00:29:16.366Z,15.05
2019-03-09T00:31:40.765Z,14.10
2019-03-09T00:33:47.474Z,13.55
2019-03-09T00:35:54.199Z,13.05
2019-03-09T00:38:00.962Z,12.90
2019-03-09T00:40:10.995Z,16.10
2019-03-09T00:42:17.663Z,14.23
2019-03-09T00:44:24.415Z,12.55
2019-03-09T00:46:31.142Z,11.45
2019-03-09T00:48:38.172Z,12.68
2019-03-09T00:50:45.857Z,13.35
2019-03-09T00:52:52.503Z,12.33
2019-03-09T00:54:59.243Z,13.20
2019-03-09T00:57:05.982Z,16.67
2019-03-09T00:59:12.717Z,14.28
2019-03-09T01:01:19.365Z,14.15
2019-03-09T01:03:26.148Z,14.47
2019-03-09T01:05:32.805Z,12.98
2019-03-09T01:07:39.464Z,16.02
2019-03-09T01:09:46.152Z,14.53
2019-03-09T01:11:52.872Z,10.95
2019-03-09T01:13:59.539Z,14.18
2019-03-09T01:16:06.215Z,11.53
2019-03-09T01:18:12.875Z,17.52
2019-03-09T01:20:19.603Z,13.00
2019-03-09T01:22:26.353Z,13.58
2019-03-09T01:24:33.014Z,14.13
2019-03-09T01:26:39.756Z,14.07
2019-03-09T01:28:46.426Z,15.18
2019-03-09T01:30:53.166Z,14.85
2019-03-09T01:32:59.820Z,10.35
2019-03-09T01:35:07.304Z,12.10
2019-03-09T01:37:13.961Z,12.50
2019-03-09T01:39:20.617Z,15.90
2019-03-09T01:41:27.298Z,13.83
2019-03-09T01:43:34.026Z,16.82
2019-03-09T01:45:40.700Z,17.17
2019-03-09T01:47:47.374Z,16.82
2019-03-09T01:49:54.026Z,11.20
2019-03-09T01:52:00.674Z,11.63
2019-03-09T01:54:07.439Z,15.18
2019-03-09T01:56:14.144Z,13.13
2019-03-09T01:58:20.829Z,15.38
2019-03-09T02:00:27.595Z,17.32
2019-03-09T02:02:34.245Z,10.88
2019-03-09T02:04:40.900Z,12.23
2019-03-09T02:06:47.589Z,15.00
2019-03-09T02:08:54.245Z,11.30
2019-03-09T02:11:00.914Z,11.33
2019-03-09T02:13:07.712Z,12.10
2019-03-09T02:15:16.536Z,15.72
2019-03-09T02:17:23.185Z,16.52
2019-03-09T02:19:29.883Z,11.78
2019-03-09T02:21:36.610Z,15.32
2019-03-09T02:23:43.269Z,12.85
2019-03-09T02:25:49.950Z,12.23
2019-03-09T02:27:56.621Z,17.90
2019-03-09T02:30:03.440Z,14.45
2019-03-09T02:32:10.218Z,14.18
2019-03-09T02:34:16.874Z,16.73
2019-03-09T02:36:23.530Z,14.75
2019-03-09T02:38:34.774Z,16.27
2019-03-09T02:40:41.511Z,14.90
2019-03-09T02:42:48.167Z,17.37
2019-03-09T02:44:54.837Z,14.33
2019-03-09T02:47:01.559Z,18.07
2019-03-09T02:49:08.282Z,14.38
2019-03-09T02:51:15.033Z,14.30
2019-03-09T02:53:21.771Z,14.85
2019-03-09T02:55:28.441Z,13.08
2019-03-09T02:57:35.102Z,14.40
2019-03-09T02:59:41.772Z,16.80
2019-03-09T03:01:52.761Z,15.35
2019-03-09T03:03:59.447Z,11.22
2019-03-09T03:06:06.174Z,14.70
2019-03-09T03:08:12.833Z,18.45
2019-03-09T03:10:19.634Z,17.35
2019-03-09T03:12:26.279Z,15.88
2019-03-09T03:14:32.933Z,11.75
2019-03-09T03:16:39.681Z,13.30
2019-03-09T03:18:46.345Z,15.35
2019-03-09T03:20:53.009Z,12.15
2019-03-09T03:22:59.712Z,17.85
2019-03-09T03:25:09.155Z,18.73
2019-03-09T03:27:15.875Z,12.68
2019-03-09T03:29:23.552Z,15.65
2019-03-09T03:31:30.204Z,12.80
2019-03-09T03:33:36.942Z,12.50
2019-03-09T03:35:43.633Z,15.68
2019-03-09T03:37:50.225Z,14.23
2019-03-09T03:39:57.021Z,11.28
2019-03-09T03:42:03.805Z,12.68
2019-03-09T03:44:10.578Z,13.75
2019-03-09T03:46:17.245Z,17.92
2019-03-09T03:48:23.924Z,12.90
2019-03-09T03:50:30.678Z,12.50
2019-03-09T03:52:37.377Z,13.58
2019-03-09T03:54:44.077Z,12.07
2019-03-09T03:56:50.816Z,13.90
2019-03-09T03:58:57.581Z,13.50
2019-03-09T04:01:04.328Z,12.50
2019-03-09T04:03:10.983Z,12.20
2019-03-09T04:05:17.710Z,12.00
2019-03-09T04:07:24.588Z,14.78
2019-03-09T04:09:31.239Z,14.38
2019-03-09T04:11:38.093Z,13.25
2019-03-09T04:13:44.783Z,12.82
2019-03-09T04:15:51.545Z,14.87
2019-03-09T04:17:58.230Z,13.30
2019-03-09T04:20:07.031Z,12.63
2019-03-09T04:22:13.772Z,13.30
2019-03-09T04:24:20.406Z,14.38
2019-03-09T04:26:27.162Z,14.30
2019-03-09T04:28:33.819Z,11.18
2019-03-09T04:30:40.480Z,12.45
2019-03-09T04:32:48.181Z,14.33
2019-03-09T04:34:54.840Z,12.05
2019-03-09T04:37:02.598Z,13.95
2019-03-09T04:39:09.346Z,13.65
2019-03-09T04:41:16.100Z,11.22
2019-03-09T04:43:22.751Z,16.07
2019-03-09T04:45:29.509Z,11.93
2019-03-09T04:47:36.230Z,12.68
2019-03-09T04:49:42.878Z,13.08
2019-03-09T04:51:49.556Z,13.68
2019-03-09T04:53:56.206Z,14.15
2019-03-09T04:56:02.871Z,13.35
2019-03-09T04:58:09.618Z,11.63
2019-03-09T05:00:17.151Z,13.60
2019-03-09T05:02:23.816Z,12.73
2019-03-09T05:04:39.977Z,11.43
2019-03-09T05:06:46.636Z,13.72
2019-03-09T05:09:00.140Z,12.23
2019-03-09T05:11:10.003Z,10.30
2019-03-09T05:13:30.800Z,14.98
2019-03-09T05:15:37.464Z,13.65
2019-03-09T05:17:44.226Z,12.70
2019-03-09T05:19:50.906Z,12.93
2019-03-09T05:21:57.624Z,14.85
2019-03-09T05:24:04.313Z,16.02
2019-03-09T05:26:10.960Z,16.70
2019-03-09T05:28:17.620Z,11.45
2019-03-09T05:30:44.589Z,12.25
2019-03-09T05:32:51.313Z,10.70
2019-03-09T05:34:58.073Z,10.65
2019-03-09T05:37:04.732Z,15.48
2019-03-09T05:39:11.377Z,12.80
2019-03-09T05:41:18.112Z,18.02
2019-03-09T05:43:24.874Z,13.03
2019-03-09T05:45:31.553Z,14.60
2019-03-09T05:47:38.209Z,14.75
2019-03-09T05:49:44.905Z,13.08
2019-03-09T05:52:24.603Z,17.77
2019-03-09T05:54:31.341Z,14.55
2019-03-09T05:56:38.014Z,16.23
2019-03-09T05:58:44.751Z,14.10
2019-03-09T06:00:51.451Z,14.73
2019-03-09T06:02:58.134Z,14.00
2019-03-09T06:05:06.539Z,18.30
2019-03-09T06:07:13.197Z,13.48
2019-03-09T06:09:19.879Z,15.00
2019-03-09T06:11:26.605Z,15.78
2019-03-09T06:13:33.332Z,14.38
2019-03-09T06:15:40.026Z,16.50
2019-03-09T06:17:46.683Z,18.60
2019-03-09T06:19:53.351Z,15.13
2019-03-09T06:22:00.035Z,16.48
2019-03-09T06:24:06.687Z,13.85
2019-03-09T06:26:13.342Z,15.05
2019-03-09T06:28:20.018Z,15.28
2019-03-09T06:30:26.675Z,13.72
2019-03-09T06:32:37.702Z,17.00
2019-03-09T06:34:44.384Z,11.45
2019-03-09T06:36:55.439Z,15.95
2019-03-09T06:39:05.736Z,17.57
2019-03-09T06:41:25.705Z,15.08
2019-03-09T06:43:32.459Z,12.98
2019-03-09T06:45:39.295Z,16.73
2019-03-09T06:47:46.041Z,13.62
2019-03-09T06:49:52.699Z,14.47
2019-03-09T06:51:59.366Z,15.00
2019-03-09T06:54:06.043Z,18.23
2019-03-09T06:56:13.703Z,14.55
2019-03-09T06:58:20.364Z,15.80
2019-03-09T07:00:38.992Z,17.23
2019-03-09T07:02:45.637Z,17.80
2019-03-09T07:04:52.306Z,15.48
2019-03-09T07:06:59.059Z,18.25
2019-03-09T07:09:07.421Z,17.42
2019-03-09T07:11:14.262Z,16.60
2019-03-09T07:13:21.018Z,15.30
2019-03-09T07:15:38.906Z,17.42
2019-03-09T07:17:45.644Z,16.00
2019-03-09T07:19:52.320Z,13.10
2019-03-09T07:21:59.066Z,17.52
2019-03-09T07:24:05.740Z,17.48
2019-03-09T07:26:12.527Z,18.48
2019-03-09T07:28:19.167Z,17.27
2019-03-09T07:30:25.836Z,17.27
2019-03-09T07:32:32.513Z,16.48
2019-03-09T07:34:39.166Z,15.55
2019-03-09T07:36:45.818Z,14.43
2019-03-09T07:38:52.513Z,13.80
2019-03-09T07:40:59.175Z,13.15
2019-03-09T07:43:05.989Z,14.73
2019-03-09T07:45:14.576Z,18.42
2019-03-09T07:47:21.238Z,14.25
2019-03-09T07:49:27.984Z,21.73
2019-03-09T07:51:34.679Z,16.15
2019-03-09T07:53:41.334Z,15.68
2019-03-09T07:55:47.997Z,14.83
2019-03-09T07:57:59.136Z,20.25
2019-03-09T08:00:12.880Z,13.98
2019-03-09T08:02:19.619Z,15.90
2019-03-09T08:04:26.306Z,18.95
2019-03-09T08:06:33.039Z,16.45
2019-03-09T08:08:39.769Z,17.57
2019-03-09T08:10:46.472Z,15.40
2019-03-09T08:12:53.187Z,20.05
2019-03-09T08:14:59.907Z,15.63
2019-03-09T08:17:07.437Z,16.57
2019-03-09T08:19:14.098Z,15.70
2019-03-09T08:21:20.760Z,13.62
2019-03-09T08:23:28.437Z,16.20
2019-03-09T08:25:35.090Z,17.42
2019-03-09T08:27:41.746Z,20.95
2019-03-09T08:29:48.428Z,13.35
2019-03-09T08:31:55.099Z,16.42
2019-03-09T08:34:01.830Z,14.43
2019-03-09T08:36:08.503Z,17.95
2019-03-09T08:38:15.157Z,15.18
2019-03-09T08:40:22.921Z,13.70
2019-03-09T08:42:29.645Z,17.57
2019-03-09T08:44:36.294Z,17.32
2019-03-09T08:46:42.974Z,12.47
2019-03-09T08:48:49.650Z,17.55
2019-03-09T08:50:56.307Z,12.60
2019-03-09T08:53:03.016Z,17.42
2019-03-09T08:55:12.232Z,16.45
2019-03-09T08:57:18.976Z,14.23
2019-03-09T08:59:25.651Z,14.45
2019-03-09T09:01:33.347Z,16.48
2019-03-09T09:03:40.102Z,13.10
2019-03-09T09:05:46.800Z,16.20
2019-03-09T09:07:53.442Z,14.00
2019-03-09T09:10:00.365Z,14.23
2019-03-09T09:12:07.090Z,16.57
2019-03-09T09:14:13.854Z,14.68
2019-03-09T09:16:20.512Z,15.68
2019-03-09T09:18:27.906Z,15.43
2019-03-09T09:20:34.609Z,11.43
2019-03-09T09:22:41.308Z,14.53
2019-03-09T09:24:47.942Z,14.70
2019-03-09T09:26:54.630Z,12.10
2019-03-09T09:29:01.306Z,14.10
2019-03-09T09:31:07.976Z,14.33
2019-03-09T09:33:14.683Z,11.45
2019-03-09T09:35:21.550Z,11.28
2019-03-09T09:37:28.214Z,15.70
2019-03-09T09:39:35.019Z,16.23
2019-03-09T09:41:41.750Z,11.78
2019-03-09T09:43:48.418Z,11.33
2019-03-09T09:45:55.103Z,9.45
2019-03-09T09:48:01.834Z,7.97
2019-03-09T09:50:11.904Z,13.30
2019-03-09T09:52:18.594Z,12.58
2019-03-09T09:54:25.336Z,8.68
2019-03-09T09:56:31.979Z,6.97
2019-03-09T09:58:38.739Z,7.25
2019-03-09T10:00:45.484Z,10.95
2019-03-09T10:02:52.228Z,10.72
2019-03-09T10:04:58.915Z,12.50
2019-03-09T10:07:05.596Z,8.05
2019-03-09T10:09:12.315Z,10.80
2019-03-09T10:11:19.076Z,9.83
2019-03-09T10:13:25.825Z,13.05
2019-03-09T10:15:33.905Z,8.53
2019-03-09T10:17:40.666Z,8.18
2019-03-09T10:19:48.323Z,8.48
2019-03-09T10:21:54.978Z,8.43
2019-03-09T10:24:01.655Z,9.53
2019-03-09T10:26:08.308Z,7.53
2019-03-09T10:28:15.037Z,8.23
2019-03-09T10:30:25.725Z,10.53
2019-03-09T10:32:32.386Z,14.80
2019-03-09T10:34:39.134Z,9.38
2019-03-09T10:36:45.879Z,8.88
2019-03-09T10:38:52.551Z,8.63
2019-03-09T10:40:59.274Z,7.37
2019-03-09T10:43:05.974Z,8.55
2019-03-09T10:45:20.794Z,10.93
2019-03-09T10:47:27.530Z,11.88
2019-03-09T10:49:34.223Z,11.00
2019-03-09T10:51:40.974Z,8.58
2019-03-09T10:53:47.696Z,8.53
2019-03-09T10:55:54.425Z,8.03
2019-03-09T10:58:01.166Z,11.10
2019-03-09T11:00:29.864Z,9.78
2019-03-09T11:02:37.667Z,6.95
2019-03-09T11:04:44.535Z,10.18
2019-03-09T11:06:51.209Z,7.33
2019-03-09T11:08:57.889Z,13.95
2019-03-09T11:11:04.556Z,8.68
2019-03-09T11:13:11.219Z,5.90
2019-03-09T11:15:17.986Z,11.75
2019-03-09T11:17:24.655Z,8.38
2019-03-09T11:19:31.366Z,6.70
2019-03-09T11:21:38.138Z,9.23
2019-03-09T11:23:44.858Z,9.75
2019-03-09T11:25:51.639Z,10.60
2019-03-09T11:28:10.353Z,10.13
2019-03-09T11:30:29.936Z,8.85
2019-03-09T11:32:36.575Z,7.90
2019-03-09T11:34:43.261Z,9.88
2019-03-09T11:36:49.916Z,8.73
2019-03-09T11:38:56.588Z,11.25
2019-03-09T11:41:03.356Z,5.53
2019-03-09T11:43:10.010Z,7.67
2019-03-09T11:45:19.259Z,6.20
2019-03-09T11:47:26.023Z,9.75
2019-03-09T11:49:32.681Z,10.32
2019-03-09T11:51:39.486Z,12.40
2019-03-09T11:53:46.191Z,6.78
2019-03-09T11:55:52.852Z,7.70
2019-03-09T11:57:59.587Z,11.18
2019-03-09T12:00:13.544Z,10.23
2019-03-09T12:02:20.199Z,7.70
2019-03-09T12:04:27.796Z,6.53
2019-03-09T12:06:34.561Z,19.92
2019-03-09T12:08:41.226Z,23.30
2019-03-09T12:10:47.880Z,6.70
2019-03-09T12:12:54.639Z,8.58
2019-03-09T12:15:01.302Z,14.70
2019-03-09T12:17:12.470Z,15.25
2019-03-09T12:19:16.511Z,10.80
2019-03-09T12:21:23.319Z,7.70
2019-03-09T12:23:30.289Z,6.83
2019-03-09T12:25:37.063Z,7.92
2019-03-09T12:27:43.722Z,5.05
2019-03-09T12:29:50.382Z,6.92
2019-03-09T12:31:57.142Z,10.60
2019-03-09T12:34:03.880Z,7.03
2019-03-09T12:36:10.548Z,8.30
2019-03-09T12:38:17.250Z,5.40
2019-03-09T12:40:23.994Z,10.32
2019-03-09T12:42:30.725Z,9.60
2019-03-09T12:44:37.472Z,7.30
2019-03-09T12:46:44.133Z,8.68
2019-03-09T12:48:50.869Z,7.10
2019-03-09T12:50:58.559Z,6.10
2019-03-09T12:53:05.226Z,8.15
2019-03-09T12:55:11.885Z,7.50
2019-03-09T12:57:18.568Z,10.43
2019-03-09T12:59:25.301Z,6.65
2019-03-09T13:01:32.041Z,8.50
2019-03-09T13:03:38.817Z,7.22
2019-03-09T13:05:46.803Z,6.08
2019-03-09T13:07:53.670Z,9.50
2019-03-09T13:10:00.425Z,6.22
2019-03-09T13:12:08.799Z,5.83
2019-03-09T13:14:16.623Z,8.25
2019-03-09T13:16:23.375Z,22.22
2019-03-09T13:18:30.028Z,7.35
2019-03-09T13:20:36.680Z,8.65
2019-03-09T13:22:43.426Z,5.70
2019-03-09T13:24:50.165Z,7.10
2019-03-09T13:26:56.803Z,8.20
2019-03-09T13:29:03.563Z,6.25
2019-03-09T13:31:10.282Z,8.13
2019-03-09T13:33:16.931Z,7.35
2019-03-09T13:35:23.798Z,10.13
2019-03-09T13:37:30.538Z,11.22
2019-03-09T13:39:37.198Z,9.45
2019-03-09T13:41:43.947Z,8.10
2019-03-09T13:43:52.091Z,10.70
2019-03-09T13:45:58.832Z,7.60
2019-03-09T13:48:05.505Z,8.20
2019-03-09T13:50:16.435Z,8.55
2019-03-09T13:52:23.172Z,9.50
2019-03-09T13:54:29.865Z,11.83
2019-03-09T13:56:36.521Z,9.23
2019-03-09T13:58:43.183Z,6.95
2019-03-09T14:00:49.939Z,6.60
2019-03-09T14:02:56.605Z,8.18
2019-03-09T14:05:03.477Z,7.20
2019-03-09T14:07:10.160Z,7.83
2019-03-09T14:09:18.445Z,8.63
2019-03-09T14:11:25.115Z,8.53
2019-03-09T14:13:31.841Z,6.92
2019-03-09T14:15:38.584Z,8.30
2019-03-09T14:17:46.302Z,6.70
2019-03-09T14:19:53.051Z,8.05
2019-03-09T14:21:59.705Z,8.38
2019-03-09T14:24:07.886Z,8.53
2019-03-09T14:26:14.641Z,8.37
2019-03-09T14:28:21.362Z,11.43
2019-03-09T14:30:28.195Z,13.80
2019-03-09T14:32:34.938Z,12.73
2019-03-09T14:34:41.592Z,12.03
2019-03-09T14:36:48.260Z,10.93
2019-03-09T14:38:54.928Z,9.60
2019-03-09T14:41:01.654Z,10.45
2019-03-09T14:43:08.309Z,9.93
2019-03-09T14:45:20.381Z,10.15
2019-03-09T14:47:27.100Z,9.80
2019-03-09T14:49:33.755Z,10.00
2019-03-09T14:51:40.565Z,10.48
2019-03-09T14:53:47.282Z,9.95
2019-03-09T14:55:53.982Z,9.83
2019-03-09T14:58:00.693Z,10.72
2019-03-09T15:00:11.721Z,9.33
2019-03-09T15:02:19.909Z,11.63
2019-03-09T15:04:26.602Z,10.70
2019-03-09T15:06:33.327Z,4.10
2019-03-09T15:08:40.076Z,6.12
2019-03-09T15:10:46.765Z,6.92
2019-03-09T15:12:54.035Z,4.92
2019-03-09T15:15:00.689Z,4.78
2019-03-09T15:17:07.572Z,4.25
2019-03-09T15:19:14.298Z,3.12
2019-03-09T15:21:20.946Z,1.35
2019-03-09T15:23:27.631Z,1.85
2019-03-09T15:25:34.282Z,1.20
2019-03-09T15:27:41.673Z,1.15
2019-03-09T15:29:48.416Z,0.37
2019-03-09T15:31:55.063Z,1.12
2019-03-09T15:34:01.776Z,1.82
2019-03-09T15:36:09.461Z,4.12
2019-03-09T15:38:16.180Z,3.40
2019-03-09T15:40:22.850Z,4.85
2019-03-09T15:42:29.605Z,4.97
2019-03-09T15:44:36.245Z,6.80
2019-03-09T15:46:42.973Z,16.23
2019-03-09T15:48:49.656Z,15.68
2019-03-09T15:50:56.393Z,12.85
2019-03-09T15:53:03.130Z,7.25
2019-03-09T15:55:12.162Z,6.03
2019-03-09T15:57:18.970Z,8.50
2019-03-09T15:59:25.613Z,7.75
2019-03-09T16:01:32.294Z,7.70
2019-03-09T16:03:39.018Z,5.08
2019-03-09T16:05:45.673Z,7.45
2019-03-09T16:07:52.429Z,6.50
2019-03-09T16:09:59.162Z,4.67
2019-03-09T16:12:05.997Z,2.92
2019-03-09T16:14:12.687Z,4.47
2019-03-09T16:16:19.393Z,4.40
2019-03-09T16:18:26.135Z,3.90
2019-03-09T16:20:32.892Z,3.33
2019-03-09T16:22:39.629Z,2.27
2019-03-09T16:24:47.811Z,4.15
2019-03-09T16:26:54.680Z,5.23
2019-03-09T16:29:01.334Z,7.95
2019-03-09T16:31:08.054Z,5.10
2019-03-09T16:33:15.238Z,5.55
2019-03-09T16:35:21.883Z,4.65
2019-03-09T16:37:28.538Z,6.12
2019-03-09T16:39:35.214Z,3.98
2019-03-09T16:41:41.867Z,3.50
2019-03-09T16:43:48.599Z,3.62
2019-03-09T16:45:55.305Z,4.97
2019-03-09T16:48:01.951Z,5.92
2019-03-09T16:50:12.633Z,4.28
2019-03-09T16:52:19.394Z,4.15
2019-03-09T16:54:26.203Z,5.65
2019-03-09T16:56:32.923Z,5.90
2019-03-09T16:58:39.727Z,4.47
2019-03-09T17:00:46.465Z,5.40
2019-03-09T17:02:53.187Z,2.75
2019-03-09T17:04:59.867Z,4.08
2019-03-09T17:07:06.532Z,4.12
2019-03-09T17:09:13.314Z,5.67
2019-03-09T17:11:20.045Z,5.40
2019-03-09T17:13:26.771Z,3.05
2019-03-09T17:15:33.426Z,6.05
2019-03-09T17:17:40.687Z,5.20
2019-03-09T17:19:47.407Z,8.50
2019-03-09T17:21:54.145Z,13.45
2019-03-09T17:24:00.899Z,8.80
2019-03-09T17:26:09.112Z,13.40
2019-03-09T17:28:15.773Z,16.60
2019-03-09T17:30:23.095Z,16.85
2019-03-09T17:32:29.862Z,14.23
2019-03-09T17:34:37.544Z,16.48
2019-03-09T17:36:44.298Z,16.60
2019-03-09T17:38:50.965Z,16.32
2019-03-09T17:40:57.622Z,15.23
2019-03-09T17:43:04.407Z,18.07
2019-03-09T17:45:22.815Z,18.17
2019-03-09T17:47:29.551Z,13.48
2019-03-09T17:49:36.306Z,16.70
2019-03-09T17:51:43.036Z,17.85
2019-03-09T17:53:49.748Z,14.28
2019-03-09T17:55:56.502Z,14.40
2019-03-09T17:58:03.231Z,13.48
2019-03-09T18:00:26.647Z,20.62
2019-03-09T18:02:33.410Z,15.00
2019-03-09T18:04:40.134Z,16.65
2019-03-09T18:06:46.795Z,13.40
2019-03-09T18:08:53.544Z,15.68
2019-03-09T18:11:09.578Z,14.07
2019-03-09T18:13:16.325Z,12.68
2019-03-09T18:15:23.023Z,12.23
2019-03-09T18:17:29.765Z,11.53
2019-03-09T18:19:36.428Z,8.98
2019-03-09T18:21:43.244Z,11.97
2019-03-09T18:23:49.965Z,10.25
2019-03-09T18:25:56.695Z,13.65
2019-03-09T18:28:03.447Z,10.43
2019-03-09T18:30:12.584Z,14.63
2019-03-09T18:34:26.560Z,11.73
2019-03-09T18:36:33.211Z,9.27
2019-03-09T18:38:40.371Z,11.12
2019-03-09T18:40:47.132Z,10.45
2019-03-09T18:42:53.787Z,13.98
2019-03-09T18:45:00.519Z,8.95
2019-03-09T18:47:07.743Z,13.25
2019-03-09T18:49:14.390Z,13.32
2019-03-09T18:51:21.056Z,16.75
2019-03-09T18:53:27.821Z,16.50
2019-03-09T18:55:35.480Z,16.15
2019-03-09T18:57:42.199Z,15.58
2019-03-09T18:59:50.185Z,12.95
2019-03-09T19:01:56.905Z,13.25
2019-03-09T19:04:03.633Z,15.00
2019-03-09T19:06:11.399Z,12.10
2019-03-09T19:08:18.241Z,15.32
2019-03-09T19:10:25.560Z,13.38
2019-03-09T19:12:32.305Z,11.40
2019-03-09T19:14:41.294Z,11.20
2019-03-09T19:16:47.474Z,12.95
2019-03-09T19:18:54.229Z,17.20
2019-03-09T19:21:02.048Z,16.30
2019-03-09T19:23:08.790Z,14.07
2019-03-09T19:25:16.549Z,15.85
2019-03-09T19:27:23.775Z,16.60
2019-03-09T19:29:31.437Z,21.52
2019-03-09T19:31:39.999Z,17.02
2019-03-09T19:33:46.653Z,16.85
2019-03-09T19:35:54.836Z,21.23
2019-03-09T19:38:01.630Z,22.55
2019-03-09T19:40:17.281Z,36.17
2019-03-09T19:42:24.018Z,78.35
2019-03-09T19:44:30.776Z,32.40
2019-03-09T19:46:39.042Z,32.50
2019-03-09T19:48:45.701Z,31.12
2019-03-09T19:50:52.461Z,84.58
2019-03-09T19:52:59.542Z,78.37
2019-03-09T19:55:08.743Z,41.20
2019-03-09T19:57:16.897Z,38.55
2019-03-09T19:59:23.621Z,24.00
2019-03-09T20:01:30.381Z,29.15
2019-03-09T20:03:39.307Z,22.48
2019-03-09T20:05:46.037Z,23.75
2019-03-09T20:07:52.778Z,26.27
2019-03-09T20:10:01.549Z,19.98
2019-03-09T20:12:08.565Z,17.70
2019-03-09T20:14:15.221Z,18.87
2019-03-09T20:16:21.970Z,17.57
2019-03-09T20:18:28.696Z,21.90
2019-03-09T20:20:35.425Z,20.40
2019-03-09T20:22:42.115Z,23.57
2019-03-09T20:24:50.119Z,25.30
2019-03-09T20:26:56.782Z,25.77
2019-03-09T20:29:04.142Z,22.58
2019-03-09T20:31:12.364Z,23.90
2019-03-09T20:33:19.083Z,17.30
2019-03-09T20:35:26.545Z,14.20
2019-03-09T20:37:34.909Z,14.95
2019-03-09T20:39:41.575Z,19.52
2019-03-09T20:41:48.326Z,16.97
2019-03-09T20:43:54.969Z,17.60
2019-03-09T20:46:04.173Z,15.83
2019-03-09T20:48:12.516Z,17.00
2019-03-09T20:50:22.993Z,16.85
2019-03-09T20:52:31.339Z,15.88
2019-03-09T20:54:37.988Z,15.85
2019-03-09T20:56:45.630Z,16.10
2019-03-09T20:58:52.844Z,17.92
2019-03-09T21:00:59.595Z,19.70
2019-03-09T21:03:06.321Z,16.05
2019-03-09T21:05:13.248Z,16.20
2019-03-09T21:07:21.708Z,13.50
2019-03-09T21:09:31.235Z,16.10
2019-03-09T21:11:39.245Z,15.32
2019-03-09T21:13:47.450Z,17.40
2019-03-09T21:15:57.405Z,17.60
2019-03-09T21:18:04.162Z,16.30
2019-03-09T21:20:12.077Z,16.50
2019-03-09T21:22:19.332Z,17.40
2019-03-09T21:24:26.059Z,17.02
2019-03-09T21:26:32.813Z,15.55
2019-03-09T21:28:39.557Z,19.12
2019-03-09T21:30:46.289Z,20.12
2019-03-09T21:32:54.861Z,18.00
2019-03-09T21:35:01.583Z,18.92
2019-03-09T21:37:08.744Z,16.20
2019-03-09T21:39:16.897Z,16.95
2019-03-09T21:41:23.737Z,17.70
2019-03-09T21:43:30.392Z,15.10
2019-03-09T21:45:37.145Z,15.05
2019-03-09T21:47:43.966Z,12.80
2019-03-09T21:49:50.628Z,14.28
2019-03-09T21:51:57.315Z,16.67
2019-03-09T21:54:05.843Z,15.48
2019-03-09T21:56:12.578Z,9.63
2019-03-09T21:58:19.250Z,13.40
2019-03-09T22:00:25.917Z,11.18
2019-03-09T22:02:32.640Z,12.88
2019-03-09T22:04:39.388Z,13.62
2019-03-09T22:06:46.053Z,11.28
2019-03-09T22:08:52.780Z,12.63
2019-03-09T22:10:59.532Z,12.18
2019-03-09T22:13:06.871Z,13.03
2019-03-09T22:15:19.928Z,13.95
2019-03-09T22:17:26.695Z,15.15
2019-03-09T22:19:33.346Z,13.18
2019-03-09T22:21:40.085Z,10.85
2019-03-09T22:23:48.532Z,12.70
2019-03-09T22:25:56.137Z,12.55
2019-03-09T22:28:05.041Z,10.58
2019-03-09T22:30:17.621Z,11.48
2019-03-09T22:32:24.328Z,12.43
2019-03-09T22:34:31.067Z,12.33
2019-03-09T22:36:37.747Z,10.80
2019-03-09T22:38:44.880Z,10.88
2019-03-09T22:40:51.544Z,8.83
2019-03-09T22:42:59.883Z,10.53
2019-03-09T22:45:10.655Z,7.03
2019-03-09T22:47:17.309Z,10.50
2019-03-09T22:49:24.990Z,8.70
2019-03-09T22:51:31.911Z,7.72
2019-03-09T22:53:38.628Z,8.33
2019-03-09T22:55:45.308Z,7.60
2019-03-09T22:57:52.268Z,6.30
2019-03-09T22:59:58.988Z,6.10
2019-03-09T23:02:06.343Z,8.13
2019-03-09T23:04:13.080Z,6.87
2019-03-09T23:06:19.739Z,7.50
2019-03-09T23:08:26.525Z,6.70
2019-03-09T23:10:33.185Z,9.80
2019-03-09T23:12:39.842Z,6.35
2019-03-09T23:14:46.554Z,5.95
2019-03-09T23:16:53.269Z,7.37
2019-03-09T23:18:59.986Z,8.73
2019-03-09T23:21:06.667Z,6.65
2019-03-09T23:23:13.311Z,8.95
2019-03-09T23:25:19.952Z,9.63
2019-03-09T23:27:26.641Z,8.50
2019-03-09T23:29:33.382Z,7.05
2019-03-09T23:31:40.044Z,10.32
2019-03-09T23:33:47.718Z,7.97
2019-03-09T23:35:55.387Z,10.05
2019-03-09T23:38:02.036Z,7.90
2019-03-09T23:40:12.246Z,9.53
2019-03-09T23:42:18.972Z,7.78
2019-03-09T23:44:25.640Z,10.50
2019-03-09T23:46:32.332Z,7.75
2019-03-09T23:48:38.979Z,9.08
2019-03-09T23:50:45.638Z,10.72
2019-03-09T23:52:52.321Z,7.17
2019-03-09T23:54:58.983Z,8.83
2019-03-09T23:57:05.713Z,6.42
2019-03-09T23:59:12.390Z,7.60
